Georgetown, Missouri
Current Conditions -  °F | °C
As of 7:53 AM on Friday 31 Oct 2014 (Local Time) from KDMO Reporting Station
Light Rain Light Rain  
Wind Chill: 28°   Ceiling: 3100
Heat Index: 39°   Visibility: 10mi
Dew Point: 28°   Wind: 26mph
Humidity: 65%   Direction: 10°N
Pressure: 30.36"   Gusts: 33mph
Location:  38.6763°N, 93.2612°W
Report Text: KDMO 311253Z AUTO 01023G29KT 10SM -RA BKN031 04/M02 A3036 RMK AO2 PK WND 36030/1154 SLP282 P0000 T00391022
Loading
Personal Weather Stations






























Interactive Weather Map
Tropical Storm Tracking
New forecast layout! Learn more

10-Day Weather Forecast

Advertisements
Track Severe Weather on mobile